createdAt,value
2018-01-04T00:02:13.384Z,84.77
2018-01-04T00:12:43.048Z,85.88
2018-01-04T00:23:09.695Z,85.36
2018-01-04T00:33:37.837Z,85.63
2018-01-04T00:44:05.945Z,85.18
2018-01-04T00:54:34.067Z,86.35
2018-01-04T01:05:02.192Z,85.58
2018-01-04T01:15:30.295Z,86.89
2018-01-04T01:25:58.386Z,85.39
2018-01-04T01:36:26.484Z,85.56
2018-01-04T01:46:54.577Z,86.56
2018-01-04T01:57:23.192Z,85.43
2018-01-04T02:07:50.816Z,86.28
2018-01-04T02:18:19.446Z,85.29
2018-01-04T02:28:47.576Z,85.02
2018-01-04T02:39:15.230Z,84.49
2018-01-04T02:49:43.410Z,86.26
2018-01-04T03:00:11.533Z,85.65
2018-01-04T03:10:39.684Z,83.19
2018-01-04T03:21:08.319Z,83.21
2018-01-04T03:31:36.453Z,83.42
2018-01-04T03:42:04.072Z,84.40
2018-01-04T03:52:32.252Z,84.55
2018-01-04T04:03:00.358Z,83.85
2018-01-04T04:13:28.993Z,87.54
2018-01-04T04:23:57.136Z,86.79
2018-01-04T04:34:24.718Z,86.82
2018-01-04T04:44:53.290Z,89.23
2018-01-04T04:55:20.891Z,89.15
2018-01-04T05:05:49.003Z,91.62
2018-01-04T05:16:17.061Z,91.79
2018-01-04T05:26:45.141Z,98.27
2018-01-04T05:37:13.674Z,100.00
2018-01-04T05:47:41.607Z,100.00
2018-01-04T05:58:09.053Z,100.00
2018-01-04T06:08:37.492Z,100.00
2018-01-04T06:19:04.906Z,100.00
2018-01-04T06:29:32.873Z,100.00
2018-01-04T06:40:00.882Z,100.00
2018-01-04T06:50:28.890Z,100.00
2018-01-04T07:00:56.933Z,100.00
2018-01-04T07:11:24.909Z,100.00
2018-01-04T07:21:52.853Z,100.00
2018-01-04T07:32:21.274Z,100.00
2018-01-04T07:42:48.681Z,100.00
2018-01-04T07:53:16.566Z,100.00
2018-01-04T08:03:44.491Z,100.00
2018-01-04T08:14:12.940Z,100.00
2018-01-04T08:24:40.993Z,100.00
2018-01-04T08:35:09.151Z,100.00
2018-01-04T08:45:37.174Z,100.00
2018-01-04T08:56:04.846Z,100.00
2018-01-04T09:06:33.044Z,100.00
2018-01-04T09:17:01.290Z,100.00
2018-01-04T09:27:29.506Z,100.00
2018-01-04T09:37:57.798Z,100.00
2018-01-04T09:48:26.104Z,100.00
2018-01-04T09:58:54.423Z,100.00
2018-01-04T10:09:23.211Z,100.00
2018-01-04T10:19:50.891Z,100.00
2018-01-04T10:30:19.121Z,100.00
2018-01-04T10:40:47.766Z,100.00
2018-01-04T10:51:15.472Z,100.00
2018-01-04T11:01:43.706Z,100.00
2018-01-04T11:12:11.986Z,100.00
2018-01-04T11:22:40.348Z,100.00
2018-01-04T11:33:08.690Z,100.00
2018-01-04T11:43:37.018Z,100.00
2018-01-04T11:54:05.390Z,100.00
2018-01-04T12:04:33.667Z,100.00
2018-01-04T12:15:01.960Z,100.00
2018-01-04T12:25:30.249Z,100.00
2018-01-04T12:35:58.727Z,100.00
2018-01-04T12:46:27.028Z,100.00
2018-01-04T12:56:55.538Z,100.00
2018-01-04T13:07:23.798Z,100.00
2018-01-04T13:17:52.015Z,100.00
2018-01-04T13:28:20.879Z,100.00
2018-01-04T13:38:48.763Z,100.00
2018-01-04T13:49:17.123Z,100.00
2018-01-04T13:59:45.451Z,100.00
2018-01-04T14:10:13.756Z,100.00
2018-01-04T14:20:42.047Z,100.00
2018-01-04T14:31:10.332Z,100.00
2018-01-04T14:41:38.611Z,100.00
2018-01-04T14:52:06.877Z,100.00
2018-01-04T15:02:35.122Z,100.00
2018-01-04T15:13:03.373Z,100.00
2018-01-04T15:23:32.119Z,100.00
2018-01-04T15:33:59.882Z,100.00
2018-01-04T15:44:28.154Z,100.00
2018-01-04T15:54:56.415Z,100.00
2018-01-04T16:05:24.714Z,100.00
2018-01-04T16:15:53.013Z,100.00
2018-01-04T16:26:21.347Z,100.00
2018-01-04T16:36:49.720Z,100.00
2018-01-04T16:47:18.076Z,100.00
2018-01-04T16:57:46.460Z,100.00
2018-01-04T17:08:14.823Z,100.00
2018-01-04T17:18:43.185Z,100.00
2018-01-04T17:29:11.493Z,100.00
2018-01-04T17:39:39.994Z,100.00
2018-01-04T17:50:08.117Z,100.00
2018-01-04T18:00:36.441Z,100.00
2018-01-04T18:11:05.273Z,100.00
2018-01-04T18:21:33.127Z,100.00
2018-01-04T18:32:01.437Z,100.00
2018-01-04T18:42:30.703Z,100.00
2018-01-04T18:52:57.964Z,100.00
2018-01-04T19:03:26.459Z,100.00
2018-01-04T19:13:54.606Z,100.00
2018-01-04T19:24:22.974Z,100.00
2018-01-04T19:34:51.349Z,100.00
2018-01-04T19:45:19.678Z,100.00
2018-01-04T19:55:48.433Z,100.00
2018-01-04T20:06:16.755Z,100.00
2018-01-04T20:16:45.166Z,100.00
2018-01-04T20:27:13.089Z,100.00
2018-01-04T20:37:41.946Z,100.00
2018-01-04T20:48:10.810Z,100.00
2018-01-04T20:58:38.206Z,100.00
2018-01-04T21:09:06.647Z,100.00
2018-01-04T21:19:35.073Z,100.00
2018-01-04T21:30:03.546Z,100.00
2018-01-04T21:40:32.071Z,90.49
2018-01-04T21:51:00.622Z,100.00
2018-01-04T22:01:29.193Z,100.00
2018-01-04T22:11:58.243Z,98.09
2018-01-04T22:22:26.306Z,85.44
2018-01-04T22:32:54.871Z,74.74
2018-01-04T22:43:23.425Z,83.17
2018-01-04T22:53:51.944Z,92.40
2018-01-04T23:04:20.469Z,88.84
2018-01-04T23:14:48.993Z,87.08
2018-01-04T23:25:17.464Z,91.89
2018-01-04T23:35:45.943Z,89.56
2018-01-04T23:46:14.345Z,87.88
2018-01-04T23:56:42.680Z,84.74
